Hiwassee Observed Data For Previous 48 Hours

Caption
Day and Hour Reservoir Elevation (behind dam)* Tailwater Elevation (below dam)* Average Hourly Discharge*
12/10/2018 2 AM EST 1,498.03 1,277.26 0
12/10/2018 3 AM EST 1,498.15 1,277.03 0
12/10/2018 4 AM EST 1,498.20 1,276.64 35
12/10/2018 5 AM EST 1,498.20 1,277.46 4,296
12/10/2018 6 AM EST 1,498.20 1,277.22 4,401
12/10/2018 7 AM EST 1,498.20 1,277.20 4,397
12/10/2018 8 AM EST 1,498.20 1,277.28 4,401
12/10/2018 9 AM EST 1,498.17 1,277.60 4,396
12/10/2018 10 AM EST 1,498.17 1,277.61 4,402
12/10/2018 11 AM EST 1,498.17 1,277.64 4,388
12/10/2018 12 PM EST 1,498.15 1,277.79 4,401
12/10/2018 1 PM EST 1,498.15 1,277.93 4,392
12/10/2018 2 PM EST 1,498.22 1,277.02 179
12/10/2018 3 PM EST 1,498.34 1,277.50 0
12/10/2018 4 PM EST 1,498.41 1,277.21 36
12/10/2018 5 PM EST 1,498.44 1,277.84 4,371
12/10/2018 6 PM EST 1,498.37 1,278.08 8,127
12/10/2018 7 PM EST 1,498.32 1,278.10 8,109
12/10/2018 8 PM EST 1,498.27 1,278.26 8,125
12/10/2018 9 PM EST 1,498.20 1,278.49 8,098
12/10/2018 10 PM EST 1,498.15 1,278.61 8,106
12/10/2018 11 PM EST 1,498.10 1,277.63 4,478
12/11/2018 12 AM EST 1,498.15 1,277.94 4,397
12/11/2018 1 AM EST 1,498.12 1,277.94 4,404
12/11/2018 2 AM EST 1,498.12 1,277.73 4,393
12/11/2018 3 AM EST 1,498.15 1,277.64 4,403
12/11/2018 4 AM EST 1,498.15 1,277.65 4,389
12/11/2018 5 AM EST 1,498.17 1,277.63 4,405
12/11/2018 6 AM EST 1,498.15 1,277.79 4,494
12/11/2018 7 AM EST 1,498.12 1,278.43 8,138
12/11/2018 8 AM EST 1,498.00 1,278.48 8,111
12/11/2018 9 AM EST 1,497.95 1,278.56 8,127
12/11/2018 10 AM EST 1,497.88 1,278.79 8,094
12/11/2018 11 AM EST 1,497.83 1,277.89 4,501
12/11/2018 12 PM EST 1,497.85 1,278.12 4,398
12/11/2018 1 PM EST 1,497.80 1,278.08 4,405
12/11/2018 2 PM EST 1,497.83 1,278.01 4,400
12/11/2018 3 PM EST 1,497.83 1,277.86 4,400
12/11/2018 4 PM EST 1,497.83 1,277.85 4,402
12/11/2018 5 PM EST 1,497.85 1,277.79 4,402
12/11/2018 6 PM EST 1,497.85 1,277.68 4,393
12/11/2018 7 PM EST 1,497.87 1,277.61 4,395
12/11/2018 8 PM EST 1,497.87 1,277.58 4,403
12/11/2018 9 PM EST 1,497.87 1,277.52 4,401
12/11/2018 10 PM EST 1,497.90 1,277.44 4,398
12/11/2018 11 PM EST 1,497.90 1,277.38 4,396
12/12/2018 12 AM EST 1,497.90 1,277.34 4,399
12/12/2018 1 AM EST 1,497.92 1,277.28 4,389
12/12/2018 2 AM EST 1,497.92 1,277.19 4,403

Elevations are in feet above sea level. Discharges are in cubic feet per second and are reported at the end of the hour.